sensor_id;sensor_type;location;lat;lon;timestamp;P1;durP1;ratioP1;P2;durP2;ratioP2
23578;SDS011;11967;50.852;4.400;2024-03-02T00:00:38;3.03;;;0.90;;
23578;SDS011;11967;50.852;4.400;2024-03-02T00:03:05;1.75;;;0.80;;
23578;SDS011;11967;50.852;4.400;2024-03-02T00:05:37;1.27;;;0.80;;
23578;SDS011;11967;50.852;4.400;2024-03-02T00:08:10;2.75;;;0.82;;
23578;SDS011;11967;50.852;4.400;2024-03-02T00:10:39;1.55;;;0.80;;
23578;SDS011;11967;50.852;4.400;2024-03-02T00:13:08;2.78;;;0.80;;
23578;SDS011;11967;50.852;4.400;2024-03-02T00:15:42;1.45;;;0.85;;
23578;SDS011;11967;50.852;4.400;2024-03-02T00:18:38;1.50;;;0.90;;
23578;SDS011;11967;50.852;4.400;2024-03-02T00:21:03;2.13;;;0.90;;
23578;SDS011;11967;50.852;4.400;2024-03-02T00:23:31;1.35;;;0.80;;
23578;SDS011;11967;50.852;4.400;2024-03-02T00:26:00;3.97;;;0.80;;
23578;SDS011;11967;50.852;4.400;2024-03-02T00:28:27;0.90;;;0.65;;
23578;SDS011;11967;50.852;4.400;2024-03-02T00:31:09;1.17;;;0.68;;
23578;SDS011;11967;50.852;4.400;2024-03-02T00:33:45;1.50;;;0.70;;
23578;SDS011;11967;50.852;4.400;2024-03-02T00:36:12;1.33;;;0.80;;
23578;SDS011;11967;50.852;4.400;2024-03-02T00:38:50;1.00;;;0.77;;
23578;SDS011;11967;50.852;4.400;2024-03-02T00:41:24;2.22;;;0.80;;
23578;SDS011;11967;50.852;4.400;2024-03-02T00:43:59;3.25;;;0.80;;
23578;SDS011;11967;50.852;4.400;2024-03-02T00:46:33;0.80;;;0.68;;
23578;SDS011;11967;50.852;4.400;2024-03-02T00:51:59;1.33;;;0.70;;
23578;SDS011;11967;50.852;4.400;2024-03-02T00:54:26;1.42;;;0.70;;
23578;SDS011;11967;50.852;4.400;2024-03-02T00:57:00;1.42;;;0.80;;
23578;SDS011;11967;50.852;4.400;2024-03-02T00:59:29;2.20;;;0.73;;
23578;SDS011;11967;50.852;4.400;2024-03-02T01:01:56;1.77;;;0.80;;
23578;SDS011;11967;50.852;4.400;2024-03-02T01:04:30;1.48;;;0.70;;
23578;SDS011;11967;50.852;4.400;2024-03-02T01:06:55;2.83;;;0.70;;
23578;SDS011;11967;50.852;4.400;2024-03-02T01:09:23;1.77;;;0.60;;
23578;SDS011;11967;50.852;4.400;2024-03-02T01:11:50;0.63;;;0.63;;
23578;SDS011;11967;50.852;4.400;2024-03-02T01:14:22;0.98;;;0.60;;
23578;SDS011;11967;50.852;4.400;2024-03-02T01:16:48;0.80;;;0.50;;
23578;SDS011;11967;50.852;4.400;2024-03-02T01:19:14;2.63;;;0.80;;
23578;SDS011;11967;50.852;4.400;2024-03-02T01:21:40;2.00;;;0.70;;
23578;SDS011;11967;50.852;4.400;2024-03-02T01:24:06;0.73;;;0.57;;
23578;SDS011;11967;50.852;4.400;2024-03-02T01:26:31;1.17;;;0.65;;
23578;SDS011;11967;50.852;4.400;2024-03-02T01:28:57;1.52;;;0.73;;
23578;SDS011;11967;50.852;4.400;2024-03-02T01:33:57;2.42;;;0.70;;
23578;SDS011;11967;50.852;4.400;2024-03-02T01:36:23;1.73;;;0.70;;
23578;SDS011;11967;50.852;4.400;2024-03-02T01:38:48;2.60;;;0.90;;
23578;SDS011;11967;50.852;4.400;2024-03-02T01:41:15;1.50;;;0.70;;
23578;SDS011;11967;50.852;4.400;2024-03-02T01:43:40;1.13;;;0.60;;
23578;SDS011;11967;50.852;4.400;2024-03-02T01:46:09;1.98;;;0.63;;
23578;SDS011;11967;50.852;4.400;2024-03-02T01:48:38;2.83;;;0.82;;
23578;SDS011;11967;50.852;4.400;2024-03-02T01:51:06;1.88;;;0.75;;
23578;SDS011;11967;50.852;4.400;2024-03-02T01:53:32;1.75;;;0.68;;
23578;SDS011;11967;50.852;4.400;2024-03-02T01:55:59;3.15;;;0.60;;
23578;SDS011;11967;50.852;4.400;2024-03-02T01:58:26;3.28;;;0.93;;
23578;SDS011;11967;50.852;4.400;2024-03-02T02:00:52;3.03;;;0.80;;
23578;SDS011;11967;50.852;4.400;2024-03-02T02:03:18;2.67;;;1.00;;
23578;SDS011;11967;50.852;4.400;2024-03-02T02:05:44;3.55;;;0.70;;
23578;SDS011;11967;50.852;4.400;2024-03-02T02:08:13;2.55;;;0.80;;
23578;SDS011;11967;50.852;4.400;2024-03-02T02:10:38;2.92;;;0.80;;
23578;SDS011;11967;50.852;4.400;2024-03-02T02:13:04;1.60;;;0.70;;
23578;SDS011;11967;50.852;4.400;2024-03-02T02:15:30;3.00;;;0.93;;
23578;SDS011;11967;50.852;4.400;2024-03-02T02:17:57;2.67;;;1.00;;
23578;SDS011;11967;50.852;4.400;2024-03-02T02:20:25;1.73;;;0.80;;
23578;SDS011;11967;50.852;4.400;2024-03-02T02:23:04;2.92;;;0.70;;
23578;SDS011;11967;50.852;4.400;2024-03-02T02:25:31;2.58;;;1.08;;
23578;SDS011;11967;50.852;4.400;2024-03-02T02:27:57;2.38;;;1.15;;
23578;SDS011;11967;50.852;4.400;2024-03-02T02:30:23;2.88;;;0.93;;
23578;SDS011;11967;50.852;4.400;2024-03-02T02:32:51;1.25;;;0.70;;
23578;SDS011;11967;50.852;4.400;2024-03-02T02:35:19;3.60;;;0.80;;
23578;SDS011;11967;50.852;4.400;2024-03-02T02:37:45;3.05;;;0.80;;
23578;SDS011;11967;50.852;4.400;2024-03-02T02:40:11;2.78;;;0.98;;
23578;SDS011;11967;50.852;4.400;2024-03-02T02:42:40;2.65;;;0.80;;
23578;SDS011;11967;50.852;4.400;2024-03-02T02:45:07;2.13;;;0.70;;
23578;SDS011;11967;50.852;4.400;2024-03-02T02:47:33;4.13;;;0.82;;
23578;SDS011;11967;50.852;4.400;2024-03-02T02:50:00;4.03;;;1.05;;
23578;SDS011;11967;50.852;4.400;2024-03-02T02:52:30;4.00;;;1.15;;
23578;SDS011;11967;50.852;4.400;2024-03-02T02:57:28;3.15;;;0.98;;
23578;SDS011;11967;50.852;4.400;2024-03-02T02:59:55;4.18;;;0.98;;
23578;SDS011;11967;50.852;4.400;2024-03-02T03:02:22;5.32;;;1.20;;
23578;SDS011;11967;50.852;4.400;2024-03-02T03:04:50;3.55;;;0.90;;
23578;SDS011;11967;50.852;4.400;2024-03-02T03:07:17;1.83;;;0.88;;
23578;SDS011;11967;50.852;4.400;2024-03-02T03:09:43;3.25;;;0.80;;
23578;SDS011;11967;50.852;4.400;2024-03-02T03:12:08;4.35;;;0.85;;
23578;SDS011;11967;50.852;4.400;2024-03-02T03:14:34;3.92;;;1.27;;
23578;SDS011;11967;50.852;4.400;2024-03-02T03:17:01;3.13;;;1.02;;
23578;SDS011;11967;50.852;4.400;2024-03-02T03:19:26;2.45;;;0.80;;
23578;SDS011;11967;50.852;4.400;2024-03-02T03:21:52;1.50;;;0.85;;
23578;SDS011;11967;50.852;4.400;2024-03-02T03:24:18;3.33;;;1.00;;
23578;SDS011;11967;50.852;4.400;2024-03-02T03:26:43;4.28;;;1.17;;
23578;SDS011;11967;50.852;4.400;2024-03-02T03:29:09;6.38;;;1.35;;
23578;SDS011;11967;50.852;4.400;2024-03-02T03:31:35;4.18;;;0.98;;
23578;SDS011;11967;50.852;4.400;2024-03-02T03:34:01;3.83;;;1.10;;
23578;SDS011;11967;50.852;4.400;2024-03-02T03:36:27;3.67;;;1.10;;
23578;SDS011;11967;50.852;4.400;2024-03-02T03:38:52;3.83;;;1.30;;
23578;SDS011;11967;50.852;4.400;2024-03-02T03:41:18;1.98;;;0.90;;
23578;SDS011;11967;50.852;4.400;2024-03-02T03:43:44;3.97;;;1.10;;
23578;SDS011;11967;50.852;4.400;2024-03-02T03:46:09;4.65;;;1.17;;
23578;SDS011;11967;50.852;4.400;2024-03-02T03:48:35;5.32;;;0.90;;
23578;SDS011;11967;50.852;4.400;2024-03-02T03:51:04;1.58;;;0.90;;
23578;SDS011;11967;50.852;4.400;2024-03-02T03:53:32;3.90;;;1.10;;
23578;SDS011;11967;50.852;4.400;2024-03-02T03:55:57;3.30;;;1.00;;
23578;SDS011;11967;50.852;4.400;2024-03-02T03:58:27;4.35;;;0.93;;
23578;SDS011;11967;50.852;4.400;2024-03-02T04:00:55;4.78;;;1.50;;
23578;SDS011;11967;50.852;4.400;2024-03-02T04:03:21;3.67;;;1.10;;
23578;SDS011;11967;50.852;4.400;2024-03-02T04:05:48;4.60;;;1.17;;
23578;SDS011;11967;50.852;4.400;2024-03-02T04:08:15;3.63;;;0.80;;
23578;SDS011;11967;50.852;4.400;2024-03-02T04:10:41;2.92;;;1.00;;
23578;SDS011;11967;50.852;4.400;2024-03-02T04:13:08;5.15;;;1.17;;
23578;SDS011;11967;50.852;4.400;2024-03-02T04:15:34;3.85;;;1.20;;
23578;SDS011;11967;50.852;4.400;2024-03-02T04:18:00;4.80;;;1.30;;
23578;SDS011;11967;50.852;4.400;2024-03-02T04:20:26;4.38;;;1.02;;
23578;SDS011;11967;50.852;4.400;2024-03-02T04:22:52;3.88;;;1.23;;
23578;SDS011;11967;50.852;4.400;2024-03-02T04:25:18;2.67;;;1.15;;
23578;SDS011;11967;50.852;4.400;2024-03-02T04:27:45;3.90;;;1.00;;
23578;SDS011;11967;50.852;4.400;2024-03-02T04:30:10;3.72;;;1.25;;
23578;SDS011;11967;50.852;4.400;2024-03-02T04:32:36;4.28;;;1.52;;
23578;SDS011;11967;50.852;4.400;2024-03-02T04:37:36;4.65;;;1.20;;
23578;SDS011;11967;50.852;4.400;2024-03-02T04:40:04;4.22;;;1.00;;
23578;SDS011;11967;50.852;4.400;2024-03-02T04:42:35;3.30;;;1.00;;
23578;SDS011;11967;50.852;4.400;2024-03-02T04:47:34;4.03;;;1.20;;
23578;SDS011;11967;50.852;4.400;2024-03-02T04:50:00;3.25;;;1.00;;
23578;SDS011;11967;50.852;4.400;2024-03-02T04:52:25;5.03;;;1.02;;
23578;SDS011;11967;50.852;4.400;2024-03-02T04:54:53;4.38;;;1.20;;
23578;SDS011;11967;50.852;4.400;2024-03-02T04:57:38;3.72;;;1.20;;
23578;SDS011;11967;50.852;4.400;2024-03-02T05:00:04;2.97;;;1.00;;
23578;SDS011;11967;50.852;4.400;2024-03-02T05:06:00;4.13;;;1.35;;
23578;SDS011;11967;50.852;4.400;2024-03-02T05:09:06;3.90;;;1.38;;
23578;SDS011;11967;50.852;4.400;2024-03-02T05:11:32;7.55;;;1.40;;
23578;SDS011;11967;50.852;4.400;2024-03-02T05:14:08;3.88;;;1.35;;
23578;SDS011;11967;50.852;4.400;2024-03-02T05:16:38;5.38;;;1.40;;
23578;SDS011;11967;50.852;4.400;2024-03-02T05:19:13;6.43;;;1.33;;
23578;SDS011;11967;50.852;4.400;2024-03-02T05:21:41;4.25;;;1.25;;
23578;SDS011;11967;50.852;4.400;2024-03-02T05:24:28;3.35;;;1.13;;
23578;SDS011;11967;50.852;4.400;2024-03-02T05:27:22;6.07;;;1.40;;
23578;SDS011;11967;50.852;4.400;2024-03-02T05:36:03;5.75;;;1.20;;
23578;SDS011;11967;50.852;4.400;2024-03-02T05:38:30;3.78;;;1.20;;
23578;SDS011;11967;50.852;4.400;2024-03-02T05:40:56;4.45;;;1.38;;
23578;SDS011;11967;50.852;4.400;2024-03-02T05:43:22;5.00;;;1.10;;
23578;SDS011;11967;50.852;4.400;2024-03-02T05:45:49;3.88;;;1.35;;
23578;SDS011;11967;50.852;4.400;2024-03-02T05:48:14;2.92;;;1.27;;
23578;SDS011;11967;50.852;4.400;2024-03-02T05:50:40;6.28;;;1.30;;
23578;SDS011;11967;50.852;4.400;2024-03-02T05:53:07;7.80;;;1.40;;
23578;SDS011;11967;50.852;4.400;2024-03-02T05:55:32;3.95;;;1.35;;
23578;SDS011;11967;50.852;4.400;2024-03-02T05:58:00;8.43;;;1.67;;
23578;SDS011;11967;50.852;4.400;2024-03-02T06:02:58;7.10;;;1.55;;
23578;SDS011;11967;50.852;4.400;2024-03-02T06:05:24;4.60;;;1.40;;
23578;SDS011;11967;50.852;4.400;2024-03-02T06:07:50;5.00;;;1.50;;
23578;SDS011;11967;50.852;4.400;2024-03-02T06:10:16;6.38;;;1.30;;
23578;SDS011;11967;50.852;4.400;2024-03-02T06:12:43;4.93;;;1.33;;
23578;SDS011;11967;50.852;4.400;2024-03-02T06:15:12;4.10;;;1.38;;
23578;SDS011;11967;50.852;4.400;2024-03-02T06:17:44;8.50;;;1.25;;
23578;SDS011;11967;50.852;4.400;2024-03-02T06:20:09;5.32;;;1.83;;
23578;SDS011;11967;50.852;4.400;2024-03-02T06:22:35;9.82;;;1.80;;
23578;SDS011;11967;50.852;4.400;2024-03-02T06:25:01;4.53;;;1.30;;
23578;SDS011;11967;50.852;4.400;2024-03-02T06:27:27;7.47;;;1.55;;
23578;SDS011;11967;50.852;4.400;2024-03-02T06:29:54;8.60;;;2.05;;
23578;SDS011;11967;50.852;4.400;2024-03-02T06:32:21;7.40;;;1.85;;
23578;SDS011;11967;50.852;4.400;2024-03-02T06:34:50;6.18;;;1.83;;
23578;SDS011;11967;50.852;4.400;2024-03-02T06:37:18;9.88;;;2.28;;
23578;SDS011;11967;50.852;4.400;2024-03-02T06:39:43;7.72;;;1.95;;
23578;SDS011;11967;50.852;4.400;2024-03-02T06:42:09;7.63;;;1.90;;
23578;SDS011;11967;50.852;4.400;2024-03-02T06:44:35;7.82;;;1.90;;
23578;SDS011;11967;50.852;4.400;2024-03-02T06:47:00;8.73;;;1.80;;
23578;SDS011;11967;50.852;4.400;2024-03-02T06:49:26;7.60;;;1.92;;
23578;SDS011;11967;50.852;4.400;2024-03-02T06:51:51;4.45;;;1.73;;
23578;SDS011;11967;50.852;4.400;2024-03-02T06:54:17;8.55;;;1.80;;
23578;SDS011;11967;50.852;4.400;2024-03-02T06:56:42;5.65;;;1.80;;
23578;SDS011;11967;50.852;4.400;2024-03-02T06:59:09;7.70;;;1.80;;
23578;SDS011;11967;50.852;4.400;2024-03-02T07:01:35;10.20;;;1.58;;
23578;SDS011;11967;50.852;4.400;2024-03-02T07:04:01;9.55;;;1.60;;
23578;SDS011;11967;50.852;4.400;2024-03-02T07:06:27;5.60;;;1.65;;
23578;SDS011;11967;50.852;4.400;2024-03-02T07:08:53;7.68;;;1.33;;
23578;SDS011;11967;50.852;4.400;2024-03-02T07:11:18;4.85;;;1.30;;
23578;SDS011;11967;50.852;4.400;2024-03-02T07:13:44;13.13;;;1.88;;
23578;SDS011;11967;50.852;4.400;2024-03-02T07:16:10;8.07;;;1.60;;
23578;SDS011;11967;50.852;4.400;2024-03-02T07:18:52;8.97;;;1.60;;
23578;SDS011;11967;50.852;4.400;2024-03-02T07:21:20;7.47;;;2.00;;
23578;SDS011;11967;50.852;4.400;2024-03-02T07:23:47;7.45;;;1.40;;
23578;SDS011;11967;50.852;4.400;2024-03-02T07:26:13;6.55;;;1.50;;
23578;SDS011;11967;50.852;4.400;2024-03-02T07:28:41;7.65;;;1.65;;
23578;SDS011;11967;50.852;4.400;2024-03-02T07:31:07;7.55;;;1.52;;
23578;SDS011;11967;50.852;4.400;2024-03-02T07:33:33;10.15;;;1.67;;
23578;SDS011;11967;50.852;4.400;2024-03-02T07:35:59;7.15;;;1.70;;
23578;SDS011;11967;50.852;4.400;2024-03-02T07:38:26;9.88;;;1.73;;
23578;SDS011;11967;50.852;4.400;2024-03-02T07:40:53;7.30;;;1.55;;
23578;SDS011;11967;50.852;4.400;2024-03-02T07:43:20;5.32;;;1.35;;
23578;SDS011;11967;50.852;4.400;2024-03-02T07:45:46;6.90;;;1.60;;
23578;SDS011;11967;50.852;4.400;2024-03-02T07:48:12;7.72;;;1.75;;
23578;SDS011;11967;50.852;4.400;2024-03-02T07:50:38;8.10;;;1.48;;
23578;SDS011;11967;50.852;4.400;2024-03-02T07:53:04;8.77;;;2.00;;
23578;SDS011;11967;50.852;4.400;2024-03-02T07:55:30;8.27;;;1.58;;
23578;SDS011;11967;50.852;4.400;2024-03-02T07:57:56;9.05;;;1.88;;
23578;SDS011;11967;50.852;4.400;2024-03-02T08:00:22;12.85;;;2.05;;
23578;SDS011;11967;50.852;4.400;2024-03-02T08:02:48;9.15;;;1.90;;
23578;SDS011;11967;50.852;4.400;2024-03-02T08:05:17;10.80;;;1.92;;
23578;SDS011;11967;50.852;4.400;2024-03-02T08:07:46;9.23;;;2.20;;
23578;SDS011;11967;50.852;4.400;2024-03-02T08:10:13;9.25;;;2.00;;
23578;SDS011;11967;50.852;4.400;2024-03-02T08:12:39;9.48;;;2.03;;
23578;SDS011;11967;50.852;4.400;2024-03-02T08:15:06;7.82;;;2.05;;
23578;SDS011;11967;50.852;4.400;2024-03-02T08:17:32;9.02;;;1.90;;
23578;SDS011;11967;50.852;4.400;2024-03-02T08:19:57;10.07;;;2.17;;
23578;SDS011;11967;50.852;4.400;2024-03-02T08:22:23;10.52;;;2.13;;
23578;SDS011;11967;50.852;4.400;2024-03-02T08:24:51;6.30;;;1.60;;
23578;SDS011;11967;50.852;4.400;2024-03-02T08:27:17;12.02;;;1.70;;
23578;SDS011;11967;50.852;4.400;2024-03-02T08:29:43;11.07;;;1.85;;
23578;SDS011;11967;50.852;4.400;2024-03-02T08:32:09;9.57;;;2.10;;
23578;SDS011;11967;50.852;4.400;2024-03-02T08:34:36;9.10;;;2.00;;
23578;SDS011;11967;50.852;4.400;2024-03-02T08:37:01;14.30;;;1.95;;
23578;SDS011;11967;50.852;4.400;2024-03-02T08:39:28;8.65;;;1.98;;
23578;SDS011;11967;50.852;4.400;2024-03-02T08:41:53;5.70;;;1.85;;
23578;SDS011;11967;50.852;4.400;2024-03-02T08:44:19;12.98;;;1.90;;
23578;SDS011;11967;50.852;4.400;2024-03-02T08:46:45;11.05;;;2.13;;
23578;SDS011;11967;50.852;4.400;2024-03-02T08:49:11;13.10;;;2.33;;
23578;SDS011;11967;50.852;4.400;2024-03-02T08:51:37;10.65;;;1.98;;
23578;SDS011;11967;50.852;4.400;2024-03-02T08:54:03;11.02;;;2.25;;
23578;SDS011;11967;50.852;4.400;2024-03-02T08:56:29;8.20;;;1.80;;
23578;SDS011;11967;50.852;4.400;2024-03-02T08:58:56;8.18;;;1.80;;
23578;SDS011;11967;50.852;4.400;2024-03-02T09:01:21;13.13;;;1.92;;
23578;SDS011;11967;50.852;4.400;2024-03-02T09:03:47;8.23;;;1.73;;
23578;SDS011;11967;50.852;4.400;2024-03-02T09:06:14;10.02;;;1.70;;
23578;SDS011;11967;50.852;4.400;2024-03-02T09:08:41;10.00;;;1.70;;
23578;SDS011;11967;50.852;4.400;2024-03-02T09:11:10;7.95;;;1.85;;
23578;SDS011;11967;50.852;4.400;2024-03-02T09:13:38;13.57;;;1.58;;
23578;SDS011;11967;50.852;4.400;2024-03-02T09:16:04;10.68;;;2.25;;
23578;SDS011;11967;50.852;4.400;2024-03-02T09:18:31;11.45;;;1.63;;
23578;SDS011;11967;50.852;4.400;2024-03-02T09:20:56;12.23;;;2.30;;
23578;SDS011;11967;50.852;4.400;2024-03-02T09:23:22;10.88;;;2.55;;
23578;SDS011;11967;50.852;4.400;2024-03-02T09:25:47;10.82;;;1.50;;
23578;SDS011;11967;50.852;4.400;2024-03-02T09:28:15;8.15;;;2.00;;
23578;SDS011;11967;50.852;4.400;2024-03-02T09:30:40;6.40;;;1.27;;
23578;SDS011;11967;50.852;4.400;2024-03-02T09:33:06;12.07;;;2.05;;
23578;SDS011;11967;50.852;4.400;2024-03-02T09:35:32;12.02;;;2.28;;
23578;SDS011;11967;50.852;4.400;2024-03-02T09:37:57;6.20;;;1.40;;
23578;SDS011;11967;50.852;4.400;2024-03-02T09:40:23;9.52;;;1.73;;
23578;SDS011;11967;50.852;4.400;2024-03-02T09:42:49;12.25;;;2.28;;
23578;SDS011;11967;50.852;4.400;2024-03-02T09:45:24;9.10;;;2.05;;
23578;SDS011;11967;50.852;4.400;2024-03-02T09:47:51;7.82;;;1.58;;
23578;SDS011;11967;50.852;4.400;2024-03-02T09:50:17;7.78;;;1.38;;
23578;SDS011;11967;50.852;4.400;2024-03-02T09:52:42;10.77;;;2.00;;
23578;SDS011;11967;50.852;4.400;2024-03-02T09:55:09;8.27;;;1.50;;
23578;SDS011;11967;50.852;4.400;2024-03-02T09:57:35;11.68;;;1.50;;
23578;SDS011;11967;50.852;4.400;2024-03-02T10:00:00;10.60;;;1.73;;
23578;SDS011;11967;50.852;4.400;2024-03-02T10:02:27;11.13;;;1.92;;
23578;SDS011;11967;50.852;4.400;2024-03-02T10:04:52;12.85;;;1.63;;
23578;SDS011;11967;50.852;4.400;2024-03-02T10:07:18;10.35;;;1.77;;
23578;SDS011;11967;50.852;4.400;2024-03-02T10:09:45;10.20;;;1.42;;
23578;SDS011;11967;50.852;4.400;2024-03-02T10:12:12;7.57;;;1.80;;
23578;SDS011;11967;50.852;4.400;2024-03-02T10:14:39;12.80;;;1.85;;
23578;SDS011;11967;50.852;4.400;2024-03-02T10:17:06;8.82;;;1.48;;
23578;SDS011;11967;50.852;4.400;2024-03-02T10:19:33;4.80;;;1.35;;
23578;SDS011;11967;50.852;4.400;2024-03-02T10:22:03;10.48;;;1.63;;
23578;SDS011;11967;50.852;4.400;2024-03-02T10:24:42;9.85;;;1.45;;
23578;SDS011;11967;50.852;4.400;2024-03-02T10:27:16;5.82;;;1.45;;
23578;SDS011;11967;50.852;4.400;2024-03-02T10:29:42;9.32;;;1.77;;
23578;SDS011;11967;50.852;4.400;2024-03-02T10:32:11;8.23;;;1.50;;
23578;SDS011;11967;50.852;4.400;2024-03-02T10:34:39;8.77;;;1.60;;
23578;SDS011;11967;50.852;4.400;2024-03-02T10:37:06;9.85;;;1.60;;
23578;SDS011;11967;50.852;4.400;2024-03-02T10:39:35;9.50;;;1.75;;
23578;SDS011;11967;50.852;4.400;2024-03-02T10:42:02;8.63;;;1.77;;
23578;SDS011;11967;50.852;4.400;2024-03-02T10:44:28;16.70;;;3.50;;
23578;SDS011;11967;50.852;4.400;2024-03-02T10:46:55;9.45;;;2.28;;
23578;SDS011;11967;50.852;4.400;2024-03-02T10:49:22;13.10;;;2.17;;
23578;SDS011;11967;50.852;4.400;2024-03-02T10:51:50;7.32;;;1.40;;
23578;SDS011;11967;50.852;4.400;2024-03-02T10:54:15;8.07;;;2.20;;
23578;SDS011;11967;50.852;4.400;2024-03-02T10:56:44;5.90;;;1.60;;
23578;SDS011;11967;50.852;4.400;2024-03-02T11:01:55;8.73;;;1.92;;
23578;SDS011;11967;50.852;4.400;2024-03-02T11:04:23;6.88;;;1.40;;
23578;SDS011;11967;50.852;4.400;2024-03-02T11:06:51;7.10;;;1.65;;
23578;SDS011;11967;50.852;4.400;2024-03-02T11:09:21;12.63;;;1.77;;
23578;SDS011;11967;50.852;4.400;2024-03-02T11:12:04;10.52;;;1.65;;
23578;SDS011;11967;50.852;4.400;2024-03-02T11:14:37;10.65;;;2.58;;
23578;SDS011;11967;50.852;4.400;2024-03-02T11:17:06;7.88;;;1.70;;
23578;SDS011;11967;50.852;4.400;2024-03-02T11:19:32;5.65;;;1.48;;
23578;SDS011;11967;50.852;4.400;2024-03-02T11:21:59;15.70;;;2.10;;
23578;SDS011;11967;50.852;4.400;2024-03-02T11:27:01;6.78;;;1.60;;
23578;SDS011;11967;50.852;4.400;2024-03-02T11:32:03;9.93;;;1.73;;
23578;SDS011;11967;50.852;4.400;2024-03-02T11:34:50;8.38;;;1.67;;
23578;SDS011;11967;50.852;4.400;2024-03-02T11:37:18;8.43;;;1.70;;
23578;SDS011;11967;50.852;4.400;2024-03-02T11:39:49;10.57;;;2.45;;
23578;SDS011;11967;50.852;4.400;2024-03-02T11:42:15;7.00;;;1.80;;
23578;SDS011;11967;50.852;4.400;2024-03-02T11:44:42;9.93;;;2.08;;
23578;SDS011;11967;50.852;4.400;2024-03-02T11:47:14;8.43;;;1.80;;
23578;SDS011;11967;50.852;4.400;2024-03-02T11:52:11;10.20;;;1.90;;
23578;SDS011;11967;50.852;4.400;2024-03-02T11:54:39;7.65;;;1.50;;
23578;SDS011;11967;50.852;4.400;2024-03-02T11:57:06;8.85;;;1.80;;
23578;SDS011;11967;50.852;4.400;2024-03-02T11:59:32;9.43;;;1.73;;
23578;SDS011;11967;50.852;4.400;2024-03-02T12:01:59;5.35;;;1.50;;
23578;SDS011;11967;50.852;4.400;2024-03-02T12:04:25;9.00;;;1.77;;
23578;SDS011;11967;50.852;4.400;2024-03-02T12:07:00;8.88;;;1.70;;
23578;SDS011;11967;50.852;4.400;2024-03-02T12:09:27;9.25;;;1.50;;
23578;SDS011;11967;50.852;4.400;2024-03-02T12:12:06;11.82;;;1.88;;
23578;SDS011;11967;50.852;4.400;2024-03-02T12:14:36;7.40;;;1.70;;
23578;SDS011;11967;50.852;4.400;2024-03-02T12:17:03;10.63;;;1.50;;
23578;SDS011;11967;50.852;4.400;2024-03-02T12:19:31;8.60;;;1.42;;
23578;SDS011;11967;50.852;4.400;2024-03-02T12:21:58;8.80;;;1.83;;
23578;SDS011;11967;50.852;4.400;2024-03-02T12:24:26;8.45;;;1.75;;
23578;SDS011;11967;50.852;4.400;2024-03-02T12:26:53;7.32;;;1.25;;
23578;SDS011;11967;50.852;4.400;2024-03-02T12:29:19;7.85;;;1.77;;
23578;SDS011;11967;50.852;4.400;2024-03-02T12:31:49;4.38;;;1.20;;
23578;SDS011;11967;50.852;4.400;2024-03-02T12:34:25;4.80;;;1.35;;
23578;SDS011;11967;50.852;4.400;2024-03-02T12:36:51;11.63;;;1.63;;
23578;SDS011;11967;50.852;4.400;2024-03-02T12:39:19;6.55;;;1.30;;
23578;SDS011;11967;50.852;4.400;2024-03-02T12:41:50;7.22;;;1.80;;
23578;SDS011;11967;50.852;4.400;2024-03-02T12:44:19;5.70;;;1.48;;
23578;SDS011;11967;50.852;4.400;2024-03-02T12:46:45;5.70;;;1.67;;
23578;SDS011;11967;50.852;4.400;2024-03-02T12:49:12;2.20;;;0.90;;
23578;SDS011;11967;50.852;4.400;2024-03-02T12:51:40;7.60;;;1.92;;
23578;SDS011;11967;50.852;4.400;2024-03-02T12:54:10;6.55;;;1.23;;
23578;SDS011;11967;50.852;4.400;2024-03-02T12:56:36;4.15;;;1.13;;
23578;SDS011;11967;50.852;4.400;2024-03-02T12:59:10;2.30;;;1.00;;
23578;SDS011;11967;50.852;4.400;2024-03-02T13:04:36;8.18;;;1.10;;
23578;SDS011;11967;50.852;4.400;2024-03-02T13:07:02;4.47;;;0.95;;
23578;SDS011;11967;50.852;4.400;2024-03-02T13:09:27;4.65;;;1.02;;
23578;SDS011;11967;50.852;4.400;2024-03-02T13:11:53;6.38;;;1.13;;
23578;SDS011;11967;50.852;4.400;2024-03-02T13:14:21;3.80;;;1.10;;
23578;SDS011;11967;50.852;4.400;2024-03-02T13:16:49;3.50;;;1.00;;
23578;SDS011;11967;50.852;4.400;2024-03-02T13:19:18;4.22;;;1.10;;
23578;SDS011;11967;50.852;4.400;2024-03-02T13:21:44;3.33;;;0.90;;
23578;SDS011;11967;50.852;4.400;2024-03-02T13:24:10;2.78;;;0.95;;
23578;SDS011;11967;50.852;4.400;2024-03-02T13:26:35;2.97;;;1.00;;
23578;SDS011;11967;50.852;4.400;2024-03-02T13:29:01;4.75;;;1.00;;
23578;SDS011;11967;50.852;4.400;2024-03-02T13:31:27;4.75;;;1.00;;
23578;SDS011;11967;50.852;4.400;2024-03-02T13:33:52;5.38;;;1.45;;
23578;SDS011;11967;50.852;4.400;2024-03-02T13:36:18;3.17;;;1.00;;
23578;SDS011;11967;50.852;4.400;2024-03-02T13:38:44;3.53;;;1.10;;
23578;SDS011;11967;50.852;4.400;2024-03-02T13:41:10;4.70;;;1.20;;
23578;SDS011;11967;50.852;4.400;2024-03-02T13:43:37;6.70;;;1.10;;
23578;SDS011;11967;50.852;4.400;2024-03-02T13:46:04;4.88;;;1.13;;
23578;SDS011;11967;50.852;4.400;2024-03-02T13:48:29;3.75;;;1.42;;
23578;SDS011;11967;50.852;4.400;2024-03-02T13:50:56;4.43;;;1.70;;
23578;SDS011;11967;50.852;4.400;2024-03-02T13:53:21;3.80;;;1.25;;
23578;SDS011;11967;50.852;4.400;2024-03-02T13:55:47;5.55;;;1.15;;
23578;SDS011;11967;50.852;4.400;2024-03-02T13:58:13;4.70;;;1.20;;
23578;SDS011;11967;50.852;4.400;2024-03-02T14:00:39;2.92;;;1.10;;
23578;SDS011;11967;50.852;4.400;2024-03-02T14:03:05;4.63;;;1.58;;
23578;SDS011;11967;50.852;4.400;2024-03-02T14:05:32;5.88;;;1.52;;
23578;SDS011;11967;50.852;4.400;2024-03-02T14:07:58;4.60;;;1.30;;
23578;SDS011;11967;50.852;4.400;2024-03-02T14:10:25;4.03;;;1.20;;
23578;SDS011;11967;50.852;4.400;2024-03-02T14:12:52;4.22;;;1.00;;
23578;SDS011;11967;50.852;4.400;2024-03-02T14:15:18;4.05;;;1.00;;
23578;SDS011;11967;50.852;4.400;2024-03-02T14:17:43;3.08;;;0.93;;
23578;SDS011;11967;50.852;4.400;2024-03-02T14:20:09;5.32;;;1.30;;
23578;SDS011;11967;50.852;4.400;2024-03-02T14:22:37;7.55;;;1.33;;
23578;SDS011;11967;50.852;4.400;2024-03-02T14:25:03;5.00;;;1.10;;
23578;SDS011;11967;50.852;4.400;2024-03-02T14:27:29;2.75;;;1.00;;
23578;SDS011;11967;50.852;4.400;2024-03-02T14:29:56;4.72;;;1.20;;
23578;SDS011;11967;50.852;4.400;2024-03-02T14:32:21;5.70;;;1.10;;
23578;SDS011;11967;50.852;4.400;2024-03-02T14:34:47;3.75;;;1.02;;
23578;SDS011;11967;50.852;4.400;2024-03-02T14:37:13;2.97;;;1.00;;
23578;SDS011;11967;50.852;4.400;2024-03-02T14:39:42;5.78;;;1.13;;
23578;SDS011;11967;50.852;4.400;2024-03-02T14:42:08;5.30;;;1.45;;
23578;SDS011;11967;50.852;4.400;2024-03-02T14:44:33;5.85;;;1.52;;
23578;SDS011;11967;50.852;4.400;2024-03-02T14:47:01;6.63;;;1.45;;
23578;SDS011;11967;50.852;4.400;2024-03-02T14:49:29;4.25;;;1.20;;
23578;SDS011;11967;50.852;4.400;2024-03-02T14:51:55;5.03;;;1.40;;
23578;SDS011;11967;50.852;4.400;2024-03-02T14:54:21;4.43;;;1.20;;
23578;SDS011;11967;50.852;4.400;2024-03-02T14:56:47;5.05;;;1.48;;
23578;SDS011;11967;50.852;4.400;2024-03-02T14:59:13;7.25;;;2.47;;
23578;SDS011;11967;50.852;4.400;2024-03-02T15:01:38;6.35;;;2.15;;
23578;SDS011;11967;50.852;4.400;2024-03-02T15:04:04;4.25;;;2.05;;
23578;SDS011;11967;50.852;4.400;2024-03-02T15:06:30;7.80;;;1.77;;
23578;SDS011;11967;50.852;4.400;2024-03-02T15:08:56;5.22;;;1.30;;
23578;SDS011;11967;50.852;4.400;2024-03-02T15:11:22;4.75;;;1.45;;
23578;SDS011;11967;50.852;4.400;2024-03-02T15:13:48;7.32;;;1.92;;
23578;SDS011;11967;50.852;4.400;2024-03-02T15:16:13;5.80;;;1.65;;
23578;SDS011;11967;50.852;4.400;2024-03-02T15:18:39;7.53;;;1.65;;
23578;SDS011;11967;50.852;4.400;2024-03-02T15:21:05;6.57;;;1.50;;
23578;SDS011;11967;50.852;4.400;2024-03-02T15:23:30;3.95;;;1.50;;
23578;SDS011;11967;50.852;4.400;2024-03-02T15:25:56;6.78;;;1.65;;